Pritchett, Colorado
Current Conditions -  °F | °C
As of 9:53 AM on Thursday 27 Nov 2014 (Local Time) from KLAA Reporting Station
Clear Clear  
Wind Chill: 36°   Ceiling: Unl
Heat Index: 39°   Visibility: 10mi
Dew Point: 23°   Wind: 5mph
Humidity: 53%   Direction: 280°W
Pressure: 30.27"   Gusts: NA
Location:  37.37°N, 102.86°W
Report Text: KLAA 271653Z AUTO 28004KT 10SM CLR 04/M05 A3027 RMK AO2 SLP266 T00391050
Loading
Personal Weather Stations






























Interactive Weather Map New forecast layout! Learn more

10-Day Weather Forecast

Advertisements
Track Severe Weather on mobile